Irving, TX

7:02 AM CDT on July 06, 2015 (GMT -0500)
Toler Lane, Irving, Texas USA | | Change Station
CLOSE
Current Station
Personal Weather Station
Location: Irving, TX
Elevation: 551 ft
Nearby Weather Stations
Active Advisory: Flood Warning

Elev 551 ft 32.84 °N, 96.96 °W | Updated 8 seconds ago

Overcast
Overcast
80.1 °F
Feels Like 85 °F
N
4.6
Wind Variable Wind from SSE
Gusts 4.6 mph

Today
High -- | Low -- °F
--% Chance of Precip.
Yesterday
High -- | Low -- °F
Precip. -- in
6:25 AM 8:39 PM
Waning Gibbous, 76% visible
Pressure 29.96 in
Visibility 10.0 miles
Clouds Few 1800 ft
Scattered Clouds 3400 ft
Overcast 8500 ft
Heat Index 85 °F
Dew Point 74 °F
Humidity 82%
Rainfall 0.00 in
Snow Depth Not available.
UV 0 out of 12
Pollen 5.20 out of 12
Air Quality Not available.
Flu Activity Not available.
METAR KDFW 061153Z 18016G22KT 10SM FEW018 SCT034 OVC085 27/22 A2999 RMK AO2 SLP146 T02670222 10283 20267 53008

More Conditions Fewer Conditions

Pressure 29.96 in
Visibility 10.0 miles
Clouds Few 1800 ft
Scattered Clouds 3400 ft
Overcast 8500 ft
Heat Index 85 °F
Dew Point 74 °F
Humidity 82%
Rainfall 0.00 in
Snow Depth Not available.
UV 0 out of 12
Pollen 5.20 out of 12
Air Quality Not available.
Flu Activity Not available.
METAR KDFW 061153Z 18016G22KT 10SM FEW018 SCT034 OVC085 27/22 A2999 RMK AO2 SLP146 T02670222 10283 20267 53008

More Conditions Fewer Conditions

10-Day Weather Forecast

×

Almanac

Astronomy

Jul. 06, 2015 Rise Set
Actual Time
Civil Twilight
Nautical Twilight
Astronomical Twilight
Moon
Length of Visible Light
Length of Day
Tomorrow will be .
, % of the Moon is Illuminated

Today's Extremes

State Highs State Lows

Community

WunderPhotos

Upload Photos

1,835,538 photos uploaded!

WunderBlogs® & News

Nearby

Air Quality

  Air Quality AQ Index Pollutant
Not available.

Snow Depth

Station Depth Elevation

Earthquake Activity

City Distance Mag. Time & Date
Minimum magnitude displayed is 2.5.

Coastal Water Temperatures

Place Temperature

Stations

Nearby Weather Stations

Station Location Temp. Windchill Dew Point Humidity Wind Precip. Elev Updated Type
                   
Flood Warning
Statement as of 8:26 PM CDT on July 05, 2015

The Flood Warning continues for
the Elm Fork Trinity River near Carrollton.
* At 0715 PM Sunday the stage was 8.21 feet.
* Flood stage is 8 feet.
* Minor flooding is occurring and minor flooding is forecast.
* Forecast... the river will remain steady through Tuesday after
midnight and then begin falling but remain above flood stage.
* At 8 feet, minor flooding will occur downstream from the gage.


Lat... Lon 3300 9700 3287 9699 3287 9687 3300 9688